createdAt,value
2019-01-30T00:03:32.528Z,3.18
2019-01-30T00:14:31.732Z,3.17
2019-01-30T00:25:34.517Z,3.17
2019-01-30T00:36:34.392Z,3.17
2019-01-30T00:47:34.937Z,3.17
2019-01-30T00:58:37.401Z,3.16
2019-01-30T01:09:37.435Z,3.15
2019-01-30T01:20:41.503Z,3.15
2019-01-30T01:31:45.819Z,3.15
2019-01-30T01:42:45.260Z,3.15
2019-01-30T01:53:48.981Z,3.15
2019-01-30T02:04:50.366Z,3.15
2019-01-30T02:15:53.650Z,3.14
2019-01-30T02:26:57.502Z,3.14
2019-01-30T02:38:00.107Z,3.14
2019-01-30T02:49:03.528Z,3.14
2019-01-30T03:00:03.992Z,3.13
2019-01-30T03:10:54.283Z,3.12
2019-01-30T03:21:52.924Z,3.12
2019-01-30T03:32:56.685Z,3.12
2019-01-30T03:43:55.960Z,3.12
2019-01-30T03:54:58.584Z,3.11
2019-01-30T04:06:03.392Z,3.11
2019-01-30T04:17:06.711Z,3.11
2019-01-30T04:28:08.960Z,3.11
2019-01-30T04:39:13.565Z,3.10
2019-01-30T04:50:09.590Z,3.10
2019-01-30T05:01:11.311Z,3.10
2019-01-30T05:12:11.465Z,3.10
2019-01-30T05:23:16.123Z,3.10
2019-01-30T05:34:15.791Z,3.09
2019-01-30T05:45:20.477Z,3.09
2019-01-30T05:56:22.290Z,3.09
2019-01-30T06:07:22.019Z,3.09
2019-01-30T06:18:21.772Z,3.08
2019-01-30T06:29:21.345Z,3.08
2019-01-30T06:40:22.467Z,3.08
2019-01-30T06:51:26.893Z,3.09
2019-01-30T07:02:32.407Z,3.10
2019-01-30T07:13:34.789Z,3.10
2019-01-30T07:24:34.895Z,3.11
2019-01-30T07:35:39.557Z,3.12
2019-01-30T07:46:39.659Z,3.14
2019-01-30T07:57:44.201Z,3.16
2019-01-30T08:08:44.901Z,3.18
2019-01-30T08:19:44.846Z,3.20
2019-01-30T08:30:44.699Z,3.22
2019-01-30T08:41:44.156Z,3.23
2019-01-30T08:52:44.526Z,3.25
2019-01-30T09:03:45.387Z,3.28
2019-01-30T09:14:44.959Z,3.28
2019-01-30T09:25:44.308Z,3.31
2019-01-30T09:36:48.128Z,3.34
2019-01-30T09:47:52.442Z,3.36
2019-01-30T09:58:51.344Z,3.38
2019-01-30T10:09:54.247Z,3.40
2019-01-30T10:20:54.111Z,3.34
2019-01-30T10:31:54.684Z,3.36
2019-01-30T10:42:58.719Z,3.34
2019-01-30T10:54:01.730Z,3.34
2019-01-30T11:05:04.399Z,3.36
2019-01-30T11:16:01.296Z,3.37
2019-01-30T11:26:57.168Z,3.39
2019-01-30T11:38:00.409Z,3.38
2019-01-30T11:49:02.789Z,3.39
2019-01-30T12:00:04.199Z,3.36
2019-01-30T12:11:01.056Z,3.35
2019-01-30T12:22:03.595Z,3.36
2019-01-30T12:33:01.214Z,3.36
2019-01-30T12:44:03.108Z,3.37
2019-01-30T12:55:04.428Z,3.37
2019-01-30T13:06:07.891Z,3.36
2019-01-30T13:17:09.129Z,3.37
2019-01-30T13:28:07.971Z,3.37
2019-01-30T13:39:04.835Z,3.36
2019-01-30T13:50:04.254Z,3.37
2019-01-30T14:01:17.314Z,3.38
2019-01-30T14:12:08.027Z,3.36
2019-01-30T14:23:05.379Z,3.38
2019-01-30T14:34:08.530Z,3.36
2019-01-30T14:45:06.242Z,3.36
2019-01-30T14:56:07.969Z,3.40
2019-01-30T15:07:17.040Z,3.34
2019-01-30T15:18:09.489Z,3.36
2019-01-30T15:29:03.267Z,3.34
2019-01-30T15:39:59.040Z,3.33
2019-01-30T15:50:57.857Z,3.32
2019-01-30T16:01:58.175Z,3.31
2019-01-30T16:12:58.144Z,3.30
2019-01-30T16:23:58.008Z,3.29
2019-01-30T16:34:56.883Z,3.29
2019-01-30T16:45:59.494Z,3.29
2019-01-30T16:56:57.512Z,3.28
2019-01-30T17:07:47.780Z,3.27
2019-01-30T17:18:47.440Z,3.27
2019-01-30T17:29:46.899Z,3.26
2019-01-30T17:40:49.550Z,3.26
2019-01-30T17:51:48.807Z,3.26
2019-01-30T18:02:43.491Z,3.25
2019-01-30T18:13:42.051Z,3.25
2019-01-30T18:24:38.784Z,3.25
2019-01-30T18:35:35.629Z,3.25
2019-01-30T18:46:27.363Z,3.24
2019-01-30T18:57:15.158Z,3.24
2019-01-30T19:08:02.463Z,3.23
2019-01-30T19:18:56.764Z,3.22
2019-01-30T19:29:53.119Z,3.22
2019-01-30T19:40:49.239Z,3.22
2019-01-30T19:51:23.681Z,3.21
2019-01-30T20:02:17.782Z,3.21
2019-01-30T20:13:17.981Z,3.21
2019-01-30T20:24:14.315Z,3.20
2019-01-30T20:35:10.490Z,3.20
2019-01-30T20:46:02.106Z,3.19
2019-01-30T20:57:02.902Z,3.19
2019-01-30T21:07:56.850Z,3.19
2019-01-30T21:18:53.983Z,3.18
2019-01-30T21:29:50.929Z,3.18
2019-01-30T21:40:51.702Z,3.18
2019-01-30T21:51:38.677Z,3.17
2019-01-30T22:02:35.884Z,3.17
2019-01-30T22:13:38.882Z,3.17
2019-01-30T22:24:41.632Z,3.17
2019-01-30T22:35:39.669Z,3.16
2019-01-30T22:46:15.829Z,3.15
2019-01-30T22:57:17.743Z,3.15
2019-01-30T23:08:22.942Z,3.14
2019-01-30T23:19:19.411Z,3.14
2019-01-30T23:30:19.756Z,3.14
2019-01-30T23:41:11.714Z,3.13
2019-01-30T23:52:12.151Z,3.13
